DUS weather

Düsseldorf Airport
Düsseldorf, North Rhine-Westphalia, Germany

Public forecast

Using degrees Celsius for public forecast. Weather courtesy of forecast.io.

METAR (pilot weather report)

Retrieved 2018/12/15 23:20 UTC (0 seconds ago):

EDDL 152320Z 15017KT CAVOK 00/M06 Q1014 NOSIG

TAF (pilot weather forecast)

Retrieved 2018/12/15 18:28 UTC (5 hours ago):

TAF EDDL 151700Z 1518/1624 15010KT 9999 BKN030 BECMG 1518/1521 15015G25KT TEMPO 1602/1608 1500 SN BKN005 PROB30 TEMPO 1603/1606 -FZRA BECMG 1608/1611 17009KT TEMPO 1608/1612 4000 -SNRA BR BKN007 TEMPO 1612/1619 BKN014